Spencer, IA

6:40 AM CDT en Agosto 17, 2017 (GMT -0500)
Spencer Municipal | | Change Station

Alt 1339 ft 43.17 °N, 95.20 °W | Updated 12 minutes ago

Nublado
Nublado
66 ° F
Sensación térmica 66 ° F
N
15
Viento Variable Viento desde Oeste
Gusts 21 mph

Hoy
Alta -- | Baja -- ° F
--% Posibilidad de precipitaciones
Ayer
Alta -- | Baja -- ° F
Precip. -- pul
Presión 29.76 pul
Visibilidad 9.0 Millas
Nubes Muy nublado 1100 ft
Muy nublado 1900 ft
Nublado 2500 ft
Punto de rocío 64 ° F
Humedad 93%
Precipitaciones 0.02 pul
Espesor de la nieve No disponible.
6:28 AM 8:19 PM
Creciente menguante, 23% visible
SPECI KSPW 171128Z AUTO 28013G18KT 9SM -RA BKN011 BKN019 OVC025 19/18 A2976 RMK AO2 RAB14 P0000 T01890178
Presión 29.76 pul
Visibilidad 9.0 Millas
Nubes Muy nublado 1100 ft
Muy nublado 1900 ft
Nublado 2500 ft
Punto de rocío 64 ° F
Humedad 93%
Precipitaciones 0.02 pul
Espesor de la nieve No disponible.
6:28 AM 8:19 PM
Creciente menguante, 23% visible
SPECI KSPW 171128Z AUTO 28013G18KT 9SM -RA BKN011 BKN019 OVC025 19/18 A2976 RMK AO2 RAB14 P0000 T01890178

Get Severe Weather Alerts

Thanks for signing up!

Be on the lookout for a verification email in your inbox.

You'll start receiving the daily forecast at 6 AM.

×

10-Day Weather Forecast

Almanac

Astronomía

Aug. 17, 2017 Salida Puesta
Hora real
Crepúsculo civil
Crepúsculo náutico
Crepúsculo astronómico
Luna
Horas de luz
Horas de luz
Tomorrow will be .
, % of the Moon is Illuminated

Extremos de hoy

Máximos del estado Bajos del estado

Community

WunderPhotos

Category 6

Welcome to Category 6. This is the collective home for Weather Underground's featured writeups by Dr. Jeff Masters (right), Bob Henson (left), Chris Burt, and other regular contributors.

Nearby

Calidad del aire

  Calidad del aire Índice AQ Contaminante
Not available.

Grosos de nieve

Estación Profundido Altura

Actividad de terremotos

Ciudad Distance Mag. Tiempo y dato
Magnitud mínima muestra es 2,5.

Temperaturas de aguas costeras

Lugar Temperatura

Stations

Estaciones meteorológicas cercanas

Ubicación de la estación Temp. Vientos helados Punto de rocío Humedad Viento Precip. Alt Actualizado Tipo
                   

Watches & Warnings

There are currently no watches in effect.